Milouin — FT9009 — position and weather

sailwx.info

Track history (hours):
 
Tides and Currents Weather Stations Pressure Air Temp Water Temp Dewpoint Dewpoint Depression Visibility Wind Speed Wind Dir Waves Ship Positions

Milouin

Last reported at 2015-Sep-03 07:32 UTC. Time now 2015-Sep-03 10:51 UTC.
Position N 47°18' W 002°06'.

Length 36 m; draft 2.5 m.

Type: Ship. MMSI: 227003190.

Date/timePositionNaut miles runAvg speedWind from/ knotsBaromVisibWave heightAir tempDewpointWater temp
2015-Sep-03 07:32N 47°18' W 002°06'0 0.0
2015-Sep-03 06:32N 47°18' W 002°06'3 3.1
2015-Sep-03 05:33N 47°18' W 002°02'3 0.1
2015-Sep-02 07:32N 47°18' W 002°06'0 0.0
2015-Sep-02 06:29N 47°18' W 002°06'0 0.4
2015-Sep-02 05:33N 47°18' W 002°05'2 0.0
2015-Aug-31 07:18N 47°18' W 002°08'1 0.7
2015-Aug-31 05:33N 47°18' W 002°06'4 0.2
2015-Aug-30 11:14N 47°17' W 002°01'3 5.0
2015-Aug-30 10:32N 47°18' W 002°06'0 0.1
2015-Aug-30 09:32N 47°18' W 002°06'1 0.8
2015-Aug-30 08:28N 47°18' W 002°07'0 0.0
2015-Aug-30 07:33N 47°18' W 002°07'0 0.0
2015-Aug-30 06:32N 47°18' W 002°07'0 0.4
2015-Aug-30 05:33N 47°18' W 002°07'4 3.9
2015-Aug-30 04:32N 47°17' W 002°01'0 0.0
2015-Aug-30 02:14N 47°17' W 002°01'0 0.0
2015-Aug-30 01:20N 47°17' W 002°01'0 0.0
2015-Aug-30 00:08N 47°17' W 002°01'0 0.0
2015-Aug-29 10:33N 47°17' W 002°01'4 3.1
2015-Aug-29 09:16N 47°18' W 002°07'0 0.0
2015-Aug-29 08:32N 47°18' W 002°07'0 0.1
2015-Aug-29 07:33N 47°18' W 002°07'0 0.0
2015-Aug-29 06:32N 47°18' W 002°07'2 2.1
2015-Aug-29 05:33N 47°18' W 002°04'1 0.0
2015-Aug-28 09:29N 47°18' W 002°03'4 4.4
2015-Aug-28 08:33N 47°18' W 002°09'0 0.1
2015-Aug-28 07:33N 47°18' W 002°09'0 0.1
2015-Aug-28 06:33N 47°18' W 002°09'2 1.5
2015-Aug-28 05:32N 47°18' W 002°07'4 0.1
2015-Aug-26 20:17N 47°17' W 002°01'0 0.0
2015-Aug-26 18:17N 47°17' W 002°01'7 0.7
2015-Aug-26 08:13N 47°17' W 002°12'1 1.6
2015-Aug-26 07:32N 47°16' W 002°12'5 4.6
2015-Aug-26 06:32N 47°18' W 002°06'0 0.1
2015-Aug-26 05:33N 47°18' W 002°06'3 0.2
2015-Aug-25 11:29N 47°18' W 002°02'  
Track history (hours):
 
Tides and Currents Weather Stations Pressure Air Temp Water Temp Dewpoint Dewpoint Depression Visibility Wind Speed Wind Dir Waves Ship Positions

Milouin

Last reported at 2015-Sep-03 07:32 UTC. Time now 2015-Sep-03 10:51 UTC.
Position N 47°18' W 002°06'.

Length 36 m; draft 2.5 m.

Type: Ship. MMSI: 227003190.

Date/timePositionNaut miles runAvg speedWind from/ knotsBaromVisibWave heightAir tempDewpointWater temp
2015-Sep-03 07:32N 47°18' W 002°06'0 0.0
2015-Sep-03 06:32N 47°18' W 002°06'3 3.1
2015-Sep-03 05:33N 47°18' W 002°02'3 0.1
2015-Sep-02 07:32N 47°18' W 002°06'0 0.0
2015-Sep-02 06:29N 47°18' W 002°06'0 0.4
2015-Sep-02 05:33N 47°18' W 002°05'2 0.0
2015-Aug-31 07:18N 47°18' W 002°08'1 0.7
2015-Aug-31 05:33N 47°18' W 002°06'4 0.2
2015-Aug-30 11:14N 47°17' W 002°01'3 5.0
2015-Aug-30 10:32N 47°18' W 002°06'0 0.1
2015-Aug-30 09:32N 47°18' W 002°06'1 0.8
2015-Aug-30 08:28N 47°18' W 002°07'0 0.0
2015-Aug-30 07:33N 47°18' W 002°07'0 0.0
2015-Aug-30 06:32N 47°18' W 002°07'0 0.4
2015-Aug-30 05:33N 47°18' W 002°07'4 3.9
2015-Aug-30 04:32N 47°17' W 002°01'0 0.0
2015-Aug-30 02:14N 47°17' W 002°01'0 0.0
2015-Aug-30 01:20N 47°17' W 002°01'0 0.0
2015-Aug-30 00:08N 47°17' W 002°01'0 0.0
2015-Aug-29 10:33N 47°17' W 002°01'4 3.1
2015-Aug-29 09:16N 47°18' W 002°07'0 0.0
2015-Aug-29 08:32N 47°18' W 002°07'0 0.1
2015-Aug-29 07:33N 47°18' W 002°07'0 0.0
2015-Aug-29 06:32N 47°18' W 002°07'2 2.1
2015-Aug-29 05:33N 47°18' W 002°04'1 0.0
2015-Aug-28 09:29N 47°18' W 002°03'4 4.4
2015-Aug-28 08:33N 47°18' W 002°09'0 0.1
2015-Aug-28 07:33N 47°18' W 002°09'0 0.1
2015-Aug-28 06:33N 47°18' W 002°09'2 1.5
2015-Aug-28 05:32N 47°18' W 002°07'4 0.1
2015-Aug-26 20:17N 47°17' W 002°01'0 0.0
2015-Aug-26 18:17N 47°17' W 002°01'7 0.7
2015-Aug-26 08:13N 47°17' W 002°12'1 1.6
2015-Aug-26 07:32N 47°16' W 002°12'5 4.6
2015-Aug-26 06:32N 47°18' W 002°06'0 0.1
2015-Aug-26 05:33N 47°18' W 002°06'3 0.2
2015-Aug-25 11:29N 47°18' W 002°02'  

Dump ship's entire track history